sensor_id;sensor_type;location;lat;lon;timestamp;P1;durP1;ratioP1;P2;durP2;ratioP2
239;SDS011;104;53.590;10.004;2022-08-19T00:01:41;34.67;;;24.27;;
239;SDS011;104;53.590;10.004;2022-08-19T00:04:11;36.60;;;25.20;;
239;SDS011;104;53.590;10.004;2022-08-19T00:06:42;31.90;;;25.27;;
239;SDS011;104;53.590;10.004;2022-08-19T00:09:11;37.27;;;25.23;;
239;SDS011;104;53.590;10.004;2022-08-19T00:11:43;34.87;;;25.90;;
239;SDS011;104;53.590;10.004;2022-08-19T00:14:11;38.00;;;26.97;;
239;SDS011;104;53.590;10.004;2022-08-19T00:16:40;36.10;;;25.73;;
239;SDS011;104;53.590;10.004;2022-08-19T00:19:08;36.10;;;26.20;;
239;SDS011;104;53.590;10.004;2022-08-19T00:21:36;37.50;;;26.30;;
239;SDS011;104;53.590;10.004;2022-08-19T00:24:05;41.23;;;26.27;;
239;SDS011;104;53.590;10.004;2022-08-19T00:26:33;41.60;;;27.50;;
239;SDS011;104;53.590;10.004;2022-08-19T00:29:01;37.20;;;27.10;;
239;SDS011;104;53.590;10.004;2022-08-19T00:31:28;40.40;;;26.73;;
239;SDS011;104;53.590;10.004;2022-08-19T00:33:56;37.13;;;28.00;;
239;SDS011;104;53.590;10.004;2022-08-19T00:36:23;40.60;;;29.83;;
239;SDS011;104;53.590;10.004;2022-08-19T00:38:50;39.37;;;29.50;;
239;SDS011;104;53.590;10.004;2022-08-19T00:41:20;36.90;;;27.53;;
239;SDS011;104;53.590;10.004;2022-08-19T00:43:56;37.33;;;27.20;;
239;SDS011;104;53.590;10.004;2022-08-19T00:46:28;34.77;;;26.83;;
239;SDS011;104;53.590;10.004;2022-08-19T00:48:56;34.90;;;26.97;;
239;SDS011;104;53.590;10.004;2022-08-19T00:51:24;40.60;;;27.90;;
239;SDS011;104;53.590;10.004;2022-08-19T00:53:51;38.80;;;26.70;;
239;SDS011;104;53.590;10.004;2022-08-19T00:56:21;40.90;;;27.80;;
239;SDS011;104;53.590;10.004;2022-08-19T00:58:51;39.23;;;27.60;;
239;SDS011;104;53.590;10.004;2022-08-19T01:01:20;36.63;;;27.37;;
239;SDS011;104;53.590;10.004;2022-08-19T01:03:47;38.20;;;27.50;;
239;SDS011;104;53.590;10.004;2022-08-19T01:06:14;36.10;;;26.80;;
239;SDS011;104;53.590;10.004;2022-08-19T01:08:41;34.00;;;26.23;;
239;SDS011;104;53.590;10.004;2022-08-19T01:11:08;40.33;;;26.87;;
239;SDS011;104;53.590;10.004;2022-08-19T01:13:37;36.23;;;24.80;;
239;SDS011;104;53.590;10.004;2022-08-19T01:16:05;33.17;;;24.90;;
239;SDS011;104;53.590;10.004;2022-08-19T01:18:36;36.13;;;26.07;;
239;SDS011;104;53.590;10.004;2022-08-19T01:21:08;35.77;;;25.43;;
239;SDS011;104;53.590;10.004;2022-08-19T01:23:42;31.43;;;24.53;;
239;SDS011;104;53.590;10.004;2022-08-19T01:26:10;30.73;;;24.97;;
239;SDS011;104;53.590;10.004;2022-08-19T01:28:38;34.77;;;26.40;;
239;SDS011;104;53.590;10.004;2022-08-19T01:31:06;33.97;;;24.73;;
239;SDS011;104;53.590;10.004;2022-08-19T01:33:35;33.30;;;25.60;;
239;SDS011;104;53.590;10.004;2022-08-19T01:36:07;37.43;;;26.60;;
239;SDS011;104;53.590;10.004;2022-08-19T01:38:36;34.23;;;25.70;;
239;SDS011;104;53.590;10.004;2022-08-19T01:41:06;34.50;;;26.17;;
239;SDS011;104;53.590;10.004;2022-08-19T01:43:34;33.70;;;26.23;;
239;SDS011;104;53.590;10.004;2022-08-19T01:46:01;40.07;;;25.70;;
239;SDS011;104;53.590;10.004;2022-08-19T01:48:35;35.50;;;26.00;;
239;SDS011;104;53.590;10.004;2022-08-19T01:51:03;37.87;;;27.60;;
239;SDS011;104;53.590;10.004;2022-08-19T01:53:30;35.80;;;27.33;;
239;SDS011;104;53.590;10.004;2022-08-19T01:55:57;34.40;;;26.90;;
239;SDS011;104;53.590;10.004;2022-08-19T01:58:28;38.40;;;27.10;;
239;SDS011;104;53.590;10.004;2022-08-19T02:00:58;35.67;;;27.77;;
239;SDS011;104;53.590;10.004;2022-08-19T02:03:26;36.17;;;27.87;;
239;SDS011;104;53.590;10.004;2022-08-19T02:05:54;36.77;;;28.00;;
239;SDS011;104;53.590;10.004;2022-08-19T02:08:22;44.17;;;28.10;;
239;SDS011;104;53.590;10.004;2022-08-19T02:10:49;36.53;;;27.17;;
239;SDS011;104;53.590;10.004;2022-08-19T02:13:17;38.93;;;27.70;;
239;SDS011;104;53.590;10.004;2022-08-19T02:15:46;37.83;;;26.53;;
239;SDS011;104;53.590;10.004;2022-08-19T02:18:13;33.90;;;25.30;;
239;SDS011;104;53.590;10.004;2022-08-19T02:20:40;38.27;;;27.87;;
239;SDS011;104;53.590;10.004;2022-08-19T02:23:09;36.97;;;26.83;;
239;SDS011;104;53.590;10.004;2022-08-19T02:25:38;35.87;;;25.50;;
239;SDS011;104;53.590;10.004;2022-08-19T02:28:05;33.87;;;25.40;;
239;SDS011;104;53.590;10.004;2022-08-19T02:30:32;35.60;;;24.60;;
239;SDS011;104;53.590;10.004;2022-08-19T02:33:01;36.63;;;26.77;;
239;SDS011;104;53.590;10.004;2022-08-19T02:35:28;34.70;;;26.07;;
239;SDS011;104;53.590;10.004;2022-08-19T02:37:55;38.77;;;25.10;;
239;SDS011;104;53.590;10.004;2022-08-19T02:40:40;37.33;;;25.57;;
239;SDS011;104;53.590;10.004;2022-08-19T02:43:14;34.83;;;26.00;;
239;SDS011;104;53.590;10.004;2022-08-19T02:45:42;33.93;;;26.40;;
239;SDS011;104;53.590;10.004;2022-08-19T02:48:10;38.13;;;26.77;;
239;SDS011;104;53.590;10.004;2022-08-19T02:50:38;33.03;;;25.40;;
239;SDS011;104;53.590;10.004;2022-08-19T02:53:07;35.20;;;26.07;;
239;SDS011;104;53.590;10.004;2022-08-19T02:55:34;34.40;;;25.40;;
239;SDS011;104;53.590;10.004;2022-08-19T02:58:08;41.90;;;25.90;;
239;SDS011;104;53.590;10.004;2022-08-19T03:00:35;36.30;;;25.27;;
239;SDS011;104;53.590;10.004;2022-08-19T03:03:02;32.33;;;24.60;;
239;SDS011;104;53.590;10.004;2022-08-19T03:05:30;36.33;;;25.70;;
239;SDS011;104;53.590;10.004;2022-08-19T03:07:57;36.37;;;26.77;;
239;SDS011;104;53.590;10.004;2022-08-19T03:10:24;34.70;;;25.50;;
239;SDS011;104;53.590;10.004;2022-08-19T03:12:51;33.50;;;24.53;;
239;SDS011;104;53.590;10.004;2022-08-19T03:15:18;33.80;;;24.03;;
239;SDS011;104;53.590;10.004;2022-08-19T03:17:45;33.07;;;24.87;;
239;SDS011;104;53.590;10.004;2022-08-19T03:20:12;31.10;;;24.77;;
239;SDS011;104;53.590;10.004;2022-08-19T03:22:40;29.47;;;22.03;;
239;SDS011;104;53.590;10.004;2022-08-19T03:25:08;33.60;;;24.07;;
239;SDS011;104;53.590;10.004;2022-08-19T03:27:39;29.37;;;23.07;;
239;SDS011;104;53.590;10.004;2022-08-19T03:30:07;30.23;;;23.80;;
239;SDS011;104;53.590;10.004;2022-08-19T03:32:34;28.67;;;22.27;;
239;SDS011;104;53.590;10.004;2022-08-19T03:35:01;27.90;;;22.50;;
239;SDS011;104;53.590;10.004;2022-08-19T03:37:29;35.13;;;23.10;;
239;SDS011;104;53.590;10.004;2022-08-19T03:39:57;30.07;;;24.10;;
239;SDS011;104;53.590;10.004;2022-08-19T03:42:24;31.20;;;22.67;;
239;SDS011;104;53.590;10.004;2022-08-19T03:44:52;28.67;;;21.90;;
239;SDS011;104;53.590;10.004;2022-08-19T03:47:19;28.30;;;22.27;;
239;SDS011;104;53.590;10.004;2022-08-19T03:49:46;26.17;;;20.60;;
239;SDS011;104;53.590;10.004;2022-08-19T03:52:13;27.70;;;21.80;;
239;SDS011;104;53.590;10.004;2022-08-19T03:54:42;26.53;;;21.33;;
239;SDS011;104;53.590;10.004;2022-08-19T03:57:14;29.33;;;21.20;;
239;SDS011;104;53.590;10.004;2022-08-19T03:59:41;29.77;;;21.20;;
239;SDS011;104;53.590;10.004;2022-08-19T04:02:09;28.50;;;22.63;;
239;SDS011;104;53.590;10.004;2022-08-19T04:04:37;23.97;;;20.57;;
239;SDS011;104;53.590;10.004;2022-08-19T04:07:06;26.17;;;19.33;;
239;SDS011;104;53.590;10.004;2022-08-19T04:09:34;26.63;;;21.03;;
239;SDS011;104;53.590;10.004;2022-08-19T04:12:03;27.33;;;21.10;;
239;SDS011;104;53.590;10.004;2022-08-19T04:14:33;25.07;;;21.33;;
239;SDS011;104;53.590;10.004;2022-08-19T04:17:01;26.40;;;19.57;;
239;SDS011;104;53.590;10.004;2022-08-19T04:19:29;28.73;;;21.50;;
239;SDS011;104;53.590;10.004;2022-08-19T04:21:57;35.43;;;21.23;;
239;SDS011;104;53.590;10.004;2022-08-19T04:24:24;25.73;;;20.70;;
239;SDS011;104;53.590;10.004;2022-08-19T04:26:51;26.57;;;19.97;;
239;SDS011;104;53.590;10.004;2022-08-19T04:29:19;27.13;;;20.70;;
239;SDS011;104;53.590;10.004;2022-08-19T04:31:51;26.50;;;21.33;;
239;SDS011;104;53.590;10.004;2022-08-19T04:34:20;27.47;;;21.13;;
239;SDS011;104;53.590;10.004;2022-08-19T04:36:49;32.33;;;21.87;;
239;SDS011;104;53.590;10.004;2022-08-19T04:39:18;27.27;;;21.47;;
239;SDS011;104;53.590;10.004;2022-08-19T04:41:47;27.63;;;22.80;;
239;SDS011;104;53.590;10.004;2022-08-19T04:44:32;28.00;;;21.73;;
239;SDS011;104;53.590;10.004;2022-08-19T04:47:03;31.70;;;22.43;;
239;SDS011;104;53.590;10.004;2022-08-19T04:49:31;31.57;;;23.37;;
239;SDS011;104;53.590;10.004;2022-08-19T04:51:58;26.07;;;21.17;;
239;SDS011;104;53.590;10.004;2022-08-19T04:54:26;28.27;;;22.60;;
239;SDS011;104;53.590;10.004;2022-08-19T04:56:53;29.07;;;21.80;;
239;SDS011;104;53.590;10.004;2022-08-19T04:59:20;28.43;;;22.87;;
239;SDS011;104;53.590;10.004;2022-08-19T05:01:48;30.50;;;22.10;;
239;SDS011;104;53.590;10.004;2022-08-19T05:04:17;30.37;;;23.27;;
239;SDS011;104;53.590;10.004;2022-08-19T05:06:45;29.53;;;22.23;;
239;SDS011;104;53.590;10.004;2022-08-19T05:09:14;29.63;;;23.00;;
239;SDS011;104;53.590;10.004;2022-08-19T05:11:42;33.87;;;22.13;;
239;SDS011;104;53.590;10.004;2022-08-19T05:14:12;31.57;;;23.07;;
239;SDS011;104;53.590;10.004;2022-08-19T05:16:39;28.20;;;21.87;;
239;SDS011;104;53.590;10.004;2022-08-19T05:19:07;28.93;;;22.27;;
239;SDS011;104;53.590;10.004;2022-08-19T05:21:52;26.87;;;19.97;;
239;SDS011;104;53.590;10.004;2022-08-19T05:24:40;27.63;;;21.70;;
239;SDS011;104;53.590;10.004;2022-08-19T05:27:07;29.47;;;22.17;;
239;SDS011;104;53.590;10.004;2022-08-19T05:29:34;35.00;;;22.40;;
239;SDS011;104;53.590;10.004;2022-08-19T05:32:02;31.60;;;21.10;;
239;SDS011;104;53.590;10.004;2022-08-19T05:34:33;27.73;;;22.20;;
239;SDS011;104;53.590;10.004;2022-08-19T05:37:05;28.83;;;22.47;;
239;SDS011;104;53.590;10.004;2022-08-19T05:39:35;27.87;;;20.70;;
239;SDS011;104;53.590;10.004;2022-08-19T05:42:04;23.90;;;19.97;;
239;SDS011;104;53.590;10.004;2022-08-19T05:44:34;25.50;;;19.87;;
239;SDS011;104;53.590;10.004;2022-08-19T05:47:04;25.53;;;19.30;;
239;SDS011;104;53.590;10.004;2022-08-19T05:49:33;23.50;;;18.47;;
239;SDS011;104;53.590;10.004;2022-08-19T05:52:02;31.17;;;21.47;;
239;SDS011;104;53.590;10.004;2022-08-19T05:54:31;28.53;;;20.20;;
239;SDS011;104;53.590;10.004;2022-08-19T05:57:00;28.73;;;22.10;;
239;SDS011;104;53.590;10.004;2022-08-19T05:59:27;51.07;;;23.83;;
239;SDS011;104;53.590;10.004;2022-08-19T06:01:54;26.33;;;19.80;;
239;SDS011;104;53.590;10.004;2022-08-19T06:04:22;27.03;;;19.80;;
239;SDS011;104;53.590;10.004;2022-08-19T06:06:49;25.20;;;19.90;;
239;SDS011;104;53.590;10.004;2022-08-19T06:09:19;24.93;;;21.03;;
239;SDS011;104;53.590;10.004;2022-08-19T06:11:50;24.93;;;21.00;;
239;SDS011;104;53.590;10.004;2022-08-19T06:14:20;27.17;;;21.50;;
239;SDS011;104;53.590;10.004;2022-08-19T06:16:49;26.50;;;21.33;;
239;SDS011;104;53.590;10.004;2022-08-19T06:19:18;28.00;;;21.03;;
239;SDS011;104;53.590;10.004;2022-08-19T06:21:47;30.13;;;21.97;;
239;SDS011;104;53.590;10.004;2022-08-19T06:24:16;30.33;;;21.47;;
239;SDS011;104;53.590;10.004;2022-08-19T06:26:47;24.50;;;20.67;;
239;SDS011;104;53.590;10.004;2022-08-19T06:29:18;25.40;;;20.80;;
239;SDS011;104;53.590;10.004;2022-08-19T06:31:49;30.77;;;23.37;;
239;SDS011;104;53.590;10.004;2022-08-19T06:34:18;26.73;;;20.50;;
239;SDS011;104;53.590;10.004;2022-08-19T06:36:47;33.20;;;21.50;;
239;SDS011;104;53.590;10.004;2022-08-19T06:39:17;28.60;;;22.33;;
239;SDS011;104;53.590;10.004;2022-08-19T06:41:46;31.27;;;21.73;;
239;SDS011;104;53.590;10.004;2022-08-19T06:44:16;27.90;;;21.60;;
239;SDS011;104;53.590;10.004;2022-08-19T06:46:44;31.27;;;21.17;;
239;SDS011;104;53.590;10.004;2022-08-19T06:49:11;24.70;;;19.40;;
239;SDS011;104;53.590;10.004;2022-08-19T06:51:39;50.13;;;22.80;;
239;SDS011;104;53.590;10.004;2022-08-19T06:54:08;31.50;;;21.90;;
239;SDS011;104;53.590;10.004;2022-08-19T06:56:36;27.80;;;20.70;;
239;SDS011;104;53.590;10.004;2022-08-19T06:59:06;27.63;;;21.67;;
239;SDS011;104;53.590;10.004;2022-08-19T07:01:35;25.97;;;20.53;;
239;SDS011;104;53.590;10.004;2022-08-19T07:04:04;26.73;;;21.47;;
239;SDS011;104;53.590;10.004;2022-08-19T07:06:32;27.70;;;22.37;;
239;SDS011;104;53.590;10.004;2022-08-19T07:08:59;29.70;;;22.80;;
239;SDS011;104;53.590;10.004;2022-08-19T07:11:26;27.90;;;23.20;;
239;SDS011;104;53.590;10.004;2022-08-19T07:13:53;28.40;;;22.07;;
239;SDS011;104;53.590;10.004;2022-08-19T07:16:22;32.37;;;21.67;;
239;SDS011;104;53.590;10.004;2022-08-19T07:18:49;28.23;;;21.13;;
239;SDS011;104;53.590;10.004;2022-08-19T07:21:18;30.30;;;22.30;;
239;SDS011;104;53.590;10.004;2022-08-19T07:23:49;34.97;;;22.97;;
239;SDS011;104;53.590;10.004;2022-08-19T07:26:18;32.37;;;23.87;;
239;SDS011;104;53.590;10.004;2022-08-19T07:28:47;29.50;;;22.70;;
239;SDS011;104;53.590;10.004;2022-08-19T07:31:15;30.17;;;22.57;;
239;SDS011;104;53.590;10.004;2022-08-19T07:33:45;37.93;;;23.47;;
239;SDS011;104;53.590;10.004;2022-08-19T07:36:15;35.23;;;23.53;;
239;SDS011;104;53.590;10.004;2022-08-19T07:38:46;30.87;;;23.37;;
239;SDS011;104;53.590;10.004;2022-08-19T07:41:18;28.63;;;22.57;;
239;SDS011;104;53.590;10.004;2022-08-19T07:43:46;29.83;;;21.77;;
239;SDS011;104;53.590;10.004;2022-08-19T07:46:14;28.43;;;22.20;;
239;SDS011;104;53.590;10.004;2022-08-19T07:48:42;29.87;;;21.37;;
239;SDS011;104;53.590;10.004;2022-08-19T07:51:13;32.03;;;23.47;;
239;SDS011;104;53.590;10.004;2022-08-19T07:53:42;32.83;;;21.70;;
239;SDS011;104;53.590;10.004;2022-08-19T07:56:11;32.10;;;22.90;;
239;SDS011;104;53.590;10.004;2022-08-19T07:58:39;28.47;;;22.13;;
239;SDS011;104;53.590;10.004;2022-08-19T08:01:09;25.20;;;19.00;;
239;SDS011;104;53.590;10.004;2022-08-19T08:03:38;27.07;;;21.17;;
239;SDS011;104;53.590;10.004;2022-08-19T08:06:24;30.63;;;21.83;;
239;SDS011;104;53.590;10.004;2022-08-19T08:09:09;33.70;;;23.23;;
239;SDS011;104;53.590;10.004;2022-08-19T08:11:41;29.33;;;21.33;;
239;SDS011;104;53.590;10.004;2022-08-19T08:14:15;31.00;;;22.77;;
239;SDS011;104;53.590;10.004;2022-08-19T08:16:43;30.77;;;22.10;;
239;SDS011;104;53.590;10.004;2022-08-19T08:19:11;28.73;;;22.00;;
239;SDS011;104;53.590;10.004;2022-08-19T08:21:41;25.80;;;20.90;;
239;SDS011;104;53.590;10.004;2022-08-19T08:24:09;27.73;;;20.20;;
239;SDS011;104;53.590;10.004;2022-08-19T08:26:37;29.60;;;21.60;;
239;SDS011;104;53.590;10.004;2022-08-19T08:29:04;30.67;;;21.47;;
239;SDS011;104;53.590;10.004;2022-08-19T08:31:32;26.03;;;20.73;;
239;SDS011;104;53.590;10.004;2022-08-19T08:34:03;27.00;;;21.50;;
239;SDS011;104;53.590;10.004;2022-08-19T08:36:30;27.70;;;20.57;;
239;SDS011;104;53.590;10.004;2022-08-19T08:39:00;25.53;;;19.80;;
239;SDS011;104;53.590;10.004;2022-08-19T08:41:28;23.27;;;18.43;;
239;SDS011;104;53.590;10.004;2022-08-19T08:44:03;33.40;;;19.50;;
239;SDS011;104;53.590;10.004;2022-08-19T08:46:33;21.80;;;18.00;;
239;SDS011;104;53.590;10.004;2022-08-19T08:49:06;19.90;;;17.23;;
239;SDS011;104;53.590;10.004;2022-08-19T08:51:47;19.30;;;15.90;;
239;SDS011;104;53.590;10.004;2022-08-19T08:54:20;25.67;;;18.03;;
239;SDS011;104;53.590;10.004;2022-08-19T08:56:57;24.60;;;18.27;;
239;SDS011;104;53.590;10.004;2022-08-19T08:59:25;21.13;;;17.63;;
239;SDS011;104;53.590;10.004;2022-08-19T09:01:57;22.70;;;18.40;;
239;SDS011;104;53.590;10.004;2022-08-19T09:04:24;27.23;;;16.37;;
239;SDS011;104;53.590;10.004;2022-08-19T09:06:53;21.83;;;18.03;;
239;SDS011;104;53.590;10.004;2022-08-19T09:09:26;22.10;;;17.93;;
239;SDS011;104;53.590;10.004;2022-08-19T09:12:02;23.93;;;18.47;;
239;SDS011;104;53.590;10.004;2022-08-19T09:14:36;21.37;;;16.90;;
239;SDS011;104;53.590;10.004;2022-08-19T09:17:11;18.40;;;14.70;;
239;SDS011;104;53.590;10.004;2022-08-19T09:19:46;20.53;;;17.17;;
239;SDS011;104;53.590;10.004;2022-08-19T09:22:20;26.43;;;16.67;;
239;SDS011;104;53.590;10.004;2022-08-19T09:24:50;23.27;;;18.00;;
239;SDS011;104;53.590;10.004;2022-08-19T09:27:18;26.83;;;18.83;;
239;SDS011;104;53.590;10.004;2022-08-19T09:29:46;24.53;;;19.83;;
239;SDS011;104;53.590;10.004;2022-08-19T09:32:13;23.10;;;17.27;;
239;SDS011;104;53.590;10.004;2022-08-19T09:34:40;26.80;;;18.37;;
239;SDS011;104;53.590;10.004;2022-08-19T09:37:08;23.63;;;17.47;;
239;SDS011;104;53.590;10.004;2022-08-19T09:39:36;21.33;;;17.00;;
239;SDS011;104;53.590;10.004;2022-08-19T09:42:07;22.57;;;17.13;;
239;SDS011;104;53.590;10.004;2022-08-19T09:44:37;19.80;;;16.30;;
239;SDS011;104;53.590;10.004;2022-08-19T09:47:05;20.83;;;16.73;;
239;SDS011;104;53.590;10.004;2022-08-19T09:49:32;20.83;;;16.80;;
239;SDS011;104;53.590;10.004;2022-08-19T09:51:59;18.70;;;16.17;;
239;SDS011;104;53.590;10.004;2022-08-19T09:54:27;27.20;;;20.00;;
239;SDS011;104;53.590;10.004;2022-08-19T09:56:54;21.97;;;17.30;;
239;SDS011;104;53.590;10.004;2022-08-19T09:59:26;22.13;;;16.27;;
239;SDS011;104;53.590;10.004;2022-08-19T10:01:54;22.50;;;17.60;;
239;SDS011;104;53.590;10.004;2022-08-19T10:04:23;20.60;;;16.77;;
239;SDS011;104;53.590;10.004;2022-08-19T10:07:10;22.97;;;17.13;;
239;SDS011;104;53.590;10.004;2022-08-19T10:09:39;20.27;;;16.77;;
239;SDS011;104;53.590;10.004;2022-08-19T10:12:06;20.93;;;15.83;;
239;SDS011;104;53.590;10.004;2022-08-19T10:14:36;21.47;;;16.10;;
239;SDS011;104;53.590;10.004;2022-08-19T10:17:04;15.07;;;13.80;;
239;SDS011;104;53.590;10.004;2022-08-19T10:19:31;18.63;;;15.13;;
239;SDS011;104;53.590;10.004;2022-08-19T10:22:02;19.70;;;14.53;;
239;SDS011;104;53.590;10.004;2022-08-19T10:24:29;18.00;;;15.27;;
239;SDS011;104;53.590;10.004;2022-08-19T10:26:57;15.80;;;14.37;;
239;SDS011;104;53.590;10.004;2022-08-19T10:29:24;17.00;;;13.30;;
239;SDS011;104;53.590;10.004;2022-08-19T10:31:54;20.10;;;14.10;;
239;SDS011;104;53.590;10.004;2022-08-19T10:34:21;19.13;;;14.20;;
239;SDS011;104;53.590;10.004;2022-08-19T10:36:49;15.67;;;13.50;;
239;SDS011;104;53.590;10.004;2022-08-19T10:39:16;13.50;;;12.70;;
239;SDS011;104;53.590;10.004;2022-08-19T10:41:43;20.07;;;14.17;;
239;SDS011;104;53.590;10.004;2022-08-19T10:44:12;16.83;;;13.80;;
239;SDS011;104;53.590;10.004;2022-08-19T10:46:41;17.10;;;15.50;;
239;SDS011;104;53.590;10.004;2022-08-19T10:49:11;20.53;;;14.03;;
239;SDS011;104;53.590;10.004;2022-08-19T10:51:39;20.77;;;14.50;;
239;SDS011;104;53.590;10.004;2022-08-19T10:54:24;21.33;;;15.13;;
239;SDS011;104;53.590;10.004;2022-08-19T10:57:13;18.33;;;15.17;;
239;SDS011;104;53.590;10.004;2022-08-19T10:59:39;18.53;;;14.70;;
239;SDS011;104;53.590;10.004;2022-08-19T11:02:07;19.43;;;15.20;;
239;SDS011;104;53.590;10.004;2022-08-19T11:04:38;22.27;;;15.50;;
239;SDS011;104;53.590;10.004;2022-08-19T11:07:06;19.73;;;15.47;;
239;SDS011;104;53.590;10.004;2022-08-19T11:09:36;17.23;;;15.20;;
239;SDS011;104;53.590;10.004;2022-08-19T11:12:05;17.37;;;14.60;;
239;SDS011;104;53.590;10.004;2022-08-19T11:14:33;19.03;;;16.17;;
239;SDS011;104;53.590;10.004;2022-08-19T11:17:01;17.97;;;14.57;;
239;SDS011;104;53.590;10.004;2022-08-19T11:19:29;16.03;;;13.90;;
239;SDS011;104;53.590;10.004;2022-08-19T11:21:58;18.17;;;16.23;;
239;SDS011;104;53.590;10.004;2022-08-19T11:24:28;19.07;;;16.73;;
239;SDS011;104;53.590;10.004;2022-08-19T11:27:00;18.30;;;16.37;;
239;SDS011;104;53.590;10.004;2022-08-19T11:29:30;21.10;;;16.03;;
239;SDS011;104;53.590;10.004;2022-08-19T11:31:59;21.90;;;15.97;;
239;SDS011;104;53.590;10.004;2022-08-19T11:34:29;21.63;;;17.27;;
239;SDS011;104;53.590;10.004;2022-08-19T11:36:58;20.47;;;15.90;;
239;SDS011;104;53.590;10.004;2022-08-19T11:39:26;21.10;;;16.30;;
239;SDS011;104;53.590;10.004;2022-08-19T11:41:57;24.23;;;16.80;;
239;SDS011;104;53.590;10.004;2022-08-19T11:44:25;21.30;;;16.03;;
239;SDS011;104;53.590;10.004;2022-08-19T11:46:55;18.90;;;16.20;;
239;SDS011;104;53.590;10.004;2022-08-19T11:49:22;21.87;;;16.03;;
239;SDS011;104;53.590;10.004;2022-08-19T11:51:49;19.77;;;15.60;;
239;SDS011;104;53.590;10.004;2022-08-19T11:54:18;22.43;;;16.30;;
239;SDS011;104;53.590;10.004;2022-08-19T11:56:45;18.60;;;16.30;;
239;SDS011;104;53.590;10.004;2022-08-19T11:59:14;25.80;;;17.27;;
239;SDS011;104;53.590;10.004;2022-08-19T12:01:41;22.20;;;16.80;;
239;SDS011;104;53.590;10.004;2022-08-19T12:04:09;20.60;;;17.23;;
239;SDS011;104;53.590;10.004;2022-08-19T12:06:37;23.60;;;17.60;;
239;SDS011;104;53.590;10.004;2022-08-19T12:09:06;23.50;;;17.17;;
239;SDS011;104;53.590;10.004;2022-08-19T12:11:36;22.33;;;16.60;;
239;SDS011;104;53.590;10.004;2022-08-19T12:14:04;22.80;;;17.27;;
239;SDS011;104;53.590;10.004;2022-08-19T12:16:32;19.00;;;16.03;;
239;SDS011;104;53.590;10.004;2022-08-19T12:19:00;25.30;;;17.10;;
239;SDS011;104;53.590;10.004;2022-08-19T12:21:30;30.00;;;17.27;;
239;SDS011;104;53.590;10.004;2022-08-19T12:23:59;24.50;;;18.00;;
239;SDS011;104;53.590;10.004;2022-08-19T12:26:27;23.80;;;18.47;;
239;SDS011;104;53.590;10.004;2022-08-19T12:28:57;23.43;;;17.37;;
239;SDS011;104;53.590;10.004;2022-08-19T12:31:25;27.67;;;16.60;;
239;SDS011;104;53.590;10.004;2022-08-19T12:33:53;22.13;;;17.53;;
239;SDS011;104;53.590;10.004;2022-08-19T12:36:20;24.10;;;17.03;;
239;SDS011;104;53.590;10.004;2022-08-19T12:38:48;24.17;;;17.90;;
239;SDS011;104;53.590;10.004;2022-08-19T12:41:15;19.10;;;15.40;;
239;SDS011;104;53.590;10.004;2022-08-19T12:43:44;23.60;;;16.07;;
239;SDS011;104;53.590;10.004;2022-08-19T12:46:15;25.73;;;16.83;;
239;SDS011;104;53.590;10.004;2022-08-19T12:48:42;23.47;;;16.10;;
239;SDS011;104;53.590;10.004;2022-08-19T12:51:11;22.27;;;17.17;;
239;SDS011;104;53.590;10.004;2022-08-19T12:53:39;24.60;;;17.40;;
239;SDS011;104;53.590;10.004;2022-08-19T12:56:07;23.70;;;18.00;;
239;SDS011;104;53.590;10.004;2022-08-19T12:58:34;22.77;;;17.40;;
239;SDS011;104;53.590;10.004;2022-08-19T13:01:05;22.53;;;17.40;;
239;SDS011;104;53.590;10.004;2022-08-19T13:03:35;26.63;;;18.87;;
239;SDS011;104;53.590;10.004;2022-08-19T13:06:02;22.67;;;17.93;;
239;SDS011;104;53.590;10.004;2022-08-19T13:08:30;23.23;;;18.30;;
239;SDS011;104;53.590;10.004;2022-08-19T13:10:57;25.80;;;15.70;;
239;SDS011;104;53.590;10.004;2022-08-19T13:13:24;21.60;;;17.40;;
239;SDS011;104;53.590;10.004;2022-08-19T13:15:52;21.97;;;17.90;;
239;SDS011;104;53.590;10.004;2022-08-19T13:18:27;21.20;;;16.70;;
239;SDS011;104;53.590;10.004;2022-08-19T13:20:55;22.87;;;17.13;;
239;SDS011;104;53.590;10.004;2022-08-19T13:23:22;22.80;;;17.00;;
239;SDS011;104;53.590;10.004;2022-08-19T13:25:55;22.93;;;17.53;;
239;SDS011;104;53.590;10.004;2022-08-19T13:28:23;24.40;;;18.37;;
239;SDS011;104;53.590;10.004;2022-08-19T13:30:50;25.50;;;18.77;;
239;SDS011;104;53.590;10.004;2022-08-19T13:33:35;23.07;;;18.00;;
239;SDS011;104;53.590;10.004;2022-08-19T13:36:04;23.90;;;19.23;;
239;SDS011;104;53.590;10.004;2022-08-19T13:38:32;28.97;;;19.90;;
239;SDS011;104;53.590;10.004;2022-08-19T13:41:04;26.37;;;19.47;;
239;SDS011;104;53.590;10.004;2022-08-19T13:43:33;26.17;;;20.00;;
239;SDS011;104;53.590;10.004;2022-08-19T13:46:10;29.67;;;21.10;;
239;SDS011;104;53.590;10.004;2022-08-19T13:52:13;29.07;;;19.47;;
239;SDS011;104;53.590;10.004;2022-08-19T13:57:59;23.00;;;18.37;;
239;SDS011;104;53.590;10.004;2022-08-19T14:00:33;25.80;;;17.03;;
239;SDS011;104;53.590;10.004;2022-08-19T14:03:07;23.03;;;17.60;;
239;SDS011;104;53.590;10.004;2022-08-19T14:05:46;22.07;;;17.33;;
239;SDS011;104;53.590;10.004;2022-08-19T14:08:14;21.23;;;17.20;;
239;SDS011;104;53.590;10.004;2022-08-19T14:10:41;23.30;;;17.80;;
239;SDS011;104;53.590;10.004;2022-08-19T14:13:10;21.20;;;15.30;;
239;SDS011;104;53.590;10.004;2022-08-19T14:15:40;21.40;;;16.50;;
239;SDS011;104;53.590;10.004;2022-08-19T14:18:08;19.20;;;15.73;;
239;SDS011;104;53.590;10.004;2022-08-19T14:20:35;21.20;;;16.50;;
239;SDS011;104;53.590;10.004;2022-08-19T14:23:04;21.90;;;17.27;;
239;SDS011;104;53.590;10.004;2022-08-19T14:25:33;22.20;;;16.63;;
239;SDS011;104;53.590;10.004;2022-08-19T14:28:03;19.53;;;15.97;;
239;SDS011;104;53.590;10.004;2022-08-19T14:30:32;20.50;;;16.60;;
239;SDS011;104;53.590;10.004;2022-08-19T14:33:03;19.43;;;16.20;;
239;SDS011;104;53.590;10.004;2022-08-19T14:35:32;21.80;;;17.20;;
239;SDS011;104;53.590;10.004;2022-08-19T14:38:00;22.50;;;16.50;;
239;SDS011;104;53.590;10.004;2022-08-19T14:40:28;20.30;;;14.87;;
239;SDS011;104;53.590;10.004;2022-08-19T14:42:59;25.40;;;16.07;;
239;SDS011;104;53.590;10.004;2022-08-19T14:45:30;16.50;;;13.50;;
239;SDS011;104;53.590;10.004;2022-08-19T14:47:58;17.10;;;14.03;;
239;SDS011;104;53.590;10.004;2022-08-19T14:50:26;15.30;;;12.80;;
239;SDS011;104;53.590;10.004;2022-08-19T14:52:57;13.97;;;13.03;;
239;SDS011;104;53.590;10.004;2022-08-19T14:55:26;18.90;;;14.47;;
239;SDS011;104;53.590;10.004;2022-08-19T14:57:53;16.03;;;13.00;;
239;SDS011;104;53.590;10.004;2022-08-19T15:00:22;14.57;;;12.60;;
239;SDS011;104;53.590;10.004;2022-08-19T15:02:50;15.07;;;11.63;;
239;SDS011;104;53.590;10.004;2022-08-19T15:05:18;15.20;;;11.90;;
239;SDS011;104;53.590;10.004;2022-08-19T15:07:45;15.43;;;12.17;;
239;SDS011;104;53.590;10.004;2022-08-19T15:10:13;17.23;;;12.10;;
239;SDS011;104;53.590;10.004;2022-08-19T15:12:41;15.30;;;11.03;;
239;SDS011;104;53.590;10.004;2022-08-19T15:15:12;12.67;;;11.23;;
239;SDS011;104;53.590;10.004;2022-08-19T15:17:43;14.07;;;10.97;;
239;SDS011;104;53.590;10.004;2022-08-19T15:20:12;14.63;;;11.73;;